createdAt,value
2023-04-08T00:00:10.217Z,7.82
2023-04-08T00:09:51.016Z,7.60
2023-04-08T00:12:59.861Z,7.90
2023-04-08T00:16:14.034Z,8.80
2023-04-08T00:24:02.326Z,9.63
2023-04-08T00:26:46.582Z,8.95
2023-04-08T00:30:42.100Z,10.45
2023-04-08T00:34:20.785Z,10.48
2023-04-08T00:44:19.970Z,8.30
2023-04-08T00:51:58.155Z,8.98
2023-04-08T00:55:31.782Z,10.57
2023-04-08T00:57:21.599Z,8.73
2023-04-08T01:02:33.951Z,11.48
2023-04-08T01:10:03.580Z,10.57
2023-04-08T01:13:49.382Z,10.48
2023-04-08T01:17:35.359Z,11.75
2023-04-08T01:21:11.358Z,13.13
2023-04-08T01:24:41.537Z,13.15
2023-04-08T01:34:30.009Z,12.80
2023-04-08T01:35:19.745Z,11.85
2023-04-08T01:38:39.931Z,12.35
2023-04-08T01:45:38.851Z,11.80
2023-04-08T01:49:23.849Z,12.65
2023-04-08T01:56:36.224Z,11.68
2023-04-08T02:00:11.856Z,11.68
2023-04-08T02:14:14.107Z,11.05
2023-04-08T02:17:48.336Z,9.02
2023-04-08T02:21:15.106Z,9.85
2023-04-08T02:27:38.715Z,9.82
2023-04-08T02:31:23.249Z,9.43
2023-04-08T02:34:56.719Z,11.57
2023-04-08T02:38:19.912Z,11.13
2023-04-08T02:45:15.315Z,11.38
2023-04-08T02:48:30.458Z,12.30
2023-04-08T02:59:03.922Z,12.40
2023-04-08T03:05:29.340Z,12.20
2023-04-08T03:12:31.491Z,12.23
2023-04-08T03:16:04.071Z,12.23
2023-04-08T03:19:32.498Z,12.00
2023-04-08T03:23:26.220Z,13.60
2023-04-08T03:26:52.990Z,12.82
2023-04-08T03:30:16.488Z,14.43
2023-04-08T03:34:12.166Z,12.85
2023-04-08T03:37:47.493Z,12.85
2023-04-08T03:51:21.344Z,12.93
2023-04-08T03:54:48.034Z,12.80
2023-04-08T04:01:36.804Z,13.13
2023-04-08T04:04:59.781Z,12.55
2023-04-08T04:12:45.027Z,14.30
2023-04-08T04:13:48.225Z,13.00
2023-04-08T04:16:41.984Z,13.43
2023-04-08T04:27:15.216Z,12.93
2023-04-08T04:34:05.401Z,13.65
2023-04-08T04:38:30.696Z,13.15
2023-04-08T04:41:19.157Z,14.13
2023-04-08T04:49:08.109Z,13.07
2023-04-08T04:49:13.707Z,15.25
2023-04-08T04:53:03.912Z,13.48
2023-04-08T04:59:48.150Z,14.77
2023-04-08T05:03:13.542Z,14.02
2023-04-08T05:07:02.082Z,13.25
2023-04-08T05:10:43.387Z,15.30
2023-04-08T05:14:21.080Z,13.20
2023-04-08T05:21:52.370Z,12.18
2023-04-08T05:28:14.191Z,12.85
2023-04-08T05:36:48.065Z,12.30
2023-04-08T05:44:13.339Z,12.70
2023-04-08T05:47:36.774Z,12.52
2023-04-08T05:47:36.784Z,9.75
2023-04-08T05:51:27.501Z,13.52
2023-04-08T06:00:09.188Z,14.80
2023-04-08T06:02:17.108Z,13.80
2023-04-08T06:05:34.071Z,15.45
2023-04-08T06:08:46.133Z,12.40
2023-04-08T06:12:26.172Z,14.75
2023-04-08T06:16:02.802Z,15.30
2023-04-08T06:19:41.914Z,17.55
2023-04-08T06:26:43.097Z,13.80
2023-04-08T06:30:12.241Z,12.65
2023-04-08T06:33:32.484Z,12.52
2023-04-08T06:38:27.881Z,13.10
2023-04-08T06:41:17.790Z,12.07
2023-04-08T06:48:18.880Z,12.55
2023-04-08T06:55:00.894Z,14.02
2023-04-08T06:59:01.302Z,12.57
2023-04-08T07:02:34.031Z,12.85
2023-04-08T07:07:08.085Z,12.27
2023-04-08T07:09:31.646Z,11.35
2023-04-08T07:12:35.601Z,11.70
2023-04-08T07:15:41.735Z,12.75
2023-04-08T07:19:34.440Z,13.10
2023-04-08T07:22:46.464Z,10.75
2023-04-08T07:30:30.937Z,12.88
2023-04-08T07:38:02.938Z,11.65
2023-04-08T07:45:41.929Z,11.15
2023-04-08T07:52:15.694Z,9.98
2023-04-08T07:59:41.986Z,9.68
2023-04-08T08:13:46.469Z,6.13
2023-04-08T08:17:16.003Z,7.28
2023-04-08T08:50:34.119Z,7.03
2023-04-08T08:54:09.375Z,7.20
2023-04-08T09:08:58.004Z,5.80
2023-04-08T09:12:15.673Z,9.15
2023-04-08T09:15:37.423Z,7.57
2023-04-08T09:22:57.858Z,9.25
2023-04-08T09:27:25.841Z,8.02
2023-04-08T09:30:52.680Z,8.55
2023-04-08T09:34:26.223Z,9.05
2023-04-08T09:38:15.782Z,8.00
2023-04-08T09:43:53.793Z,6.72
2023-04-08T09:45:39.244Z,5.18
2023-04-08T09:52:53.644Z,4.47
2023-04-08T09:56:33.011Z,4.68
2023-04-08T10:00:12.015Z,5.88
2023-04-08T10:17:50.266Z,6.43
2023-04-08T10:21:58.135Z,6.18
2023-04-08T10:30:13.246Z,6.68
2023-04-08T10:33:42.936Z,7.45
2023-04-08T10:36:52.016Z,7.72
2023-04-08T10:40:31.764Z,6.05
2023-04-08T10:44:04.762Z,6.57
2023-04-08T10:55:27.270Z,7.30
2023-04-08T11:01:58.847Z,6.82
2023-04-08T11:03:19.359Z,7.32
2023-04-08T11:07:13.758Z,8.10
2023-04-08T11:10:50.437Z,5.95
2023-04-08T11:14:10.569Z,7.25
2023-04-08T11:17:08.015Z,6.40
2023-04-08T11:20:26.493Z,6.15
2023-04-08T11:23:36.734Z,6.32
2023-04-08T11:27:35.085Z,6.80
2023-04-08T11:30:45.722Z,7.38
2023-04-08T11:34:01.163Z,9.82
2023-04-08T11:36:59.860Z,9.55
2023-04-08T11:47:14.166Z,12.50
2023-04-08T11:50:43.550Z,11.63
2023-04-08T11:54:04.134Z,12.13
2023-04-08T11:57:34.897Z,10.65
2023-04-08T12:01:28.156Z,10.90
2023-04-08T12:05:01.281Z,10.05
2023-04-08T12:08:51.536Z,11.10
2023-04-08T12:12:02.425Z,11.38
2023-04-08T12:15:44.832Z,11.57
2023-04-08T12:22:29.609Z,12.90
2023-04-08T12:25:42.236Z,11.32
2023-04-08T12:28:46.759Z,10.45
2023-04-08T12:32:03.708Z,11.85
2023-04-08T12:35:17.054Z,9.20
2023-04-08T12:41:53.697Z,10.07
2023-04-08T12:44:53.284Z,10.75
2023-04-08T12:48:10.716Z,12.02
2023-04-08T12:51:19.319Z,11.95
2023-04-08T12:54:53.314Z,11.48
2023-04-08T13:01:32.952Z,11.20
2023-04-08T13:04:35.170Z,9.80
2023-04-08T13:08:01.590Z,9.57
2023-04-08T13:14:58.771Z,10.43
2023-04-08T13:18:42.514Z,10.52
2023-04-08T13:21:53.563Z,10.10
2023-04-08T13:24:57.374Z,12.18
2023-04-08T13:32:31.732Z,12.93
2023-04-08T13:35:55.478Z,13.07
2023-04-08T13:39:22.155Z,13.48
2023-04-08T13:42:45.836Z,12.95
2023-04-08T13:49:25.968Z,13.93
2023-04-08T13:49:45.571Z,14.20
2023-04-08T14:00:01.767Z,17.00
2023-04-08T14:00:19.906Z,16.35
2023-04-08T14:04:14.884Z,17.08
2023-04-08T14:07:29.751Z,16.23
2023-04-08T14:10:38.549Z,16.38
2023-04-08T14:14:04.034Z,17.42
2023-04-08T14:17:05.858Z,18.88
2023-04-08T14:23:28.759Z,15.82
2023-04-08T14:26:27.576Z,15.32
2023-04-08T14:29:49.455Z,16.63
2023-04-08T14:33:18.390Z,17.48
2023-04-08T14:37:11.620Z,16.90
2023-04-08T14:40:31.544Z,18.02
2023-04-08T14:43:49.175Z,15.85
2023-04-08T14:47:11.180Z,15.25
2023-04-08T14:50:23.840Z,17.10
2023-04-08T14:54:03.264Z,17.15
2023-04-08T14:57:52.123Z,16.42
2023-04-08T15:01:58.223Z,15.25
2023-04-08T15:05:24.973Z,16.20
2023-04-08T15:08:35.746Z,15.32
2023-04-08T15:11:48.089Z,15.13
2023-04-08T15:15:21.760Z,15.82
2023-04-08T15:19:05.558Z,16.98
2023-04-08T15:22:19.870Z,17.80
2023-04-08T15:28:58.712Z,15.55
2023-04-08T15:32:46.229Z,13.90
2023-04-08T15:36:13.493Z,16.02
2023-04-08T15:42:43.597Z,16.10
2023-04-08T15:45:56.703Z,16.42
2023-04-08T15:56:42.884Z,12.38
2023-04-08T15:57:21.954Z,12.90
2023-04-08T16:01:01.521Z,11.77
2023-04-08T16:04:28.844Z,12.68
2023-04-08T16:11:22.790Z,12.98
2023-04-08T16:14:34.674Z,11.88
2023-04-08T16:17:46.907Z,11.85
2023-04-08T16:24:56.688Z,13.85
2023-04-08T16:32:12.675Z,15.25
2023-04-08T16:35:18.864Z,14.88
2023-04-08T16:38:29.064Z,14.77
2023-04-08T16:41:58.500Z,15.73
2023-04-08T16:45:26.995Z,14.70
2023-04-08T16:49:09.739Z,15.65
2023-04-08T16:52:30.089Z,16.92
2023-04-08T16:56:12.691Z,20.83
2023-04-08T16:59:06.739Z,21.98
2023-04-08T17:02:06.390Z,20.13
2023-04-08T17:05:48.748Z,22.52
2023-04-08T17:12:43.220Z,21.55
2023-04-08T17:19:22.320Z,22.65
2023-04-08T17:26:18.803Z,26.02
2023-04-08T17:29:46.018Z,23.67
2023-04-08T17:33:28.780Z,26.23
2023-04-08T17:40:03.551Z,27.00
2023-04-08T17:43:07.609Z,25.80
2023-04-08T17:50:13.400Z,27.42
2023-04-08T17:53:30.906Z,29.60
2023-04-08T17:56:44.951Z,28.02
2023-04-08T18:00:12.735Z,29.50
2023-04-08T18:03:51.409Z,30.38
2023-04-08T18:07:09.092Z,29.85
2023-04-08T18:10:28.042Z,30.42
2023-04-08T18:13:29.026Z,33.17
2023-04-08T18:17:27.999Z,32.50
2023-04-08T18:20:41.764Z,32.33
2023-04-08T18:24:15.806Z,29.38
2023-04-08T18:27:43.125Z,33.55
2023-04-08T18:31:24.792Z,33.70
2023-04-08T18:38:43.823Z,33.42
2023-04-08T18:44:21.117Z,36.97
2023-04-08T18:45:24.282Z,40.92
2023-04-08T18:55:38.942Z,42.28
2023-04-08T19:02:15.761Z,44.60
2023-04-08T19:05:39.452Z,48.05
2023-04-08T19:09:14.450Z,50.33
2023-04-08T19:12:41.500Z,52.92
2023-04-08T19:15:39.026Z,55.00
2023-04-08T19:22:32.264Z,59.70
2023-04-08T19:26:19.881Z,59.05
2023-04-08T19:29:38.795Z,60.08
2023-04-08T19:32:46.210Z,64.53
2023-04-08T19:36:31.434Z,67.82
2023-04-08T19:39:26.399Z,68.68
2023-04-08T19:46:04.693Z,68.03
2023-04-08T19:52:51.221Z,72.82
2023-04-08T19:56:26.708Z,74.25
2023-04-08T19:59:49.504Z,72.18
2023-04-08T20:03:01.480Z,74.90
2023-04-08T20:06:25.418Z,78.38
2023-04-08T20:09:54.902Z,82.50
2023-04-08T20:16:21.115Z,83.45
2023-04-08T20:19:49.240Z,88.13
2023-04-08T20:23:05.921Z,86.72
2023-04-08T20:26:19.882Z,89.43
2023-04-08T20:30:15.011Z,87.28
2023-04-08T20:37:13.346Z,89.88
2023-04-08T20:40:43.887Z,87.85
2023-04-08T20:44:08.577Z,89.18
2023-04-08T20:47:27.865Z,94.63
2023-04-08T20:50:59.302Z,94.72
2023-04-08T20:59:02.439Z,103.78
2023-04-08T21:01:18.283Z,101.22
2023-04-08T21:04:45.897Z,106.57
2023-04-08T21:08:34.748Z,106.45
2023-04-08T21:11:43.641Z,105.55
2023-04-08T21:14:51.443Z,103.82
2023-04-08T21:20:46.903Z,108.65
2023-04-08T21:23:36.907Z,105.35
2023-04-08T21:26:52.836Z,105.22
2023-04-08T21:30:24.549Z,106.90
2023-04-08T21:33:30.671Z,108.57
2023-04-08T21:36:43.348Z,114.40
2023-04-08T21:39:47.708Z,114.70
2023-04-08T21:43:37.330Z,115.60
2023-04-08T21:46:40.277Z,109.15
2023-04-08T21:49:37.948Z,110.25
2023-04-08T21:59:00.785Z,104.57
2023-04-08T22:01:55.520Z,114.63
2023-04-08T22:05:24.619Z,114.50
2023-04-08T22:08:33.129Z,117.25
2023-04-08T22:11:59.115Z,125.63
2023-04-08T22:18:47.960Z,117.05
2023-04-08T22:25:10.477Z,117.38
2023-04-08T22:28:21.175Z,110.30
2023-04-08T22:38:50.296Z,107.57
2023-04-08T22:42:07.001Z,113.05
2023-04-08T22:45:40.679Z,107.28
2023-04-08T22:52:15.586Z,103.47
2023-04-08T22:53:17.860Z,113.95
2023-04-08T22:55:24.239Z,101.07
2023-04-08T23:02:03.013Z,98.32
2023-04-08T23:05:10.874Z,98.80
2023-04-08T23:08:18.251Z,97.07
2023-04-08T23:11:12.736Z,96.78
2023-04-08T23:14:14.760Z,94.90
2023-04-08T23:17:44.637Z,93.13
2023-04-08T23:20:49.260Z,93.00
2023-04-08T23:24:05.572Z,92.53
2023-04-08T23:27:45.976Z,90.70
2023-04-08T23:30:51.116Z,90.57
2023-04-08T23:34:09.758Z,86.97
2023-04-08T23:37:24.592Z,83.43
2023-04-08T23:41:11.014Z,77.45
2023-04-08T23:44:23.972Z,73.07
2023-04-08T23:47:25.446Z,71.47
2023-04-08T23:50:52.884Z,68.50
2023-04-08T23:54:19.341Z,67.80
2023-04-08T23:57:59.492Z,63.78
